Terminal Aerodrome Forecast
Issued by NWS

Current Version | Previous Version | Text Only | Print | Product List | Glossary On
Versions: 1 2 3 4 5 6 7 8 9 10 11 12 13
000
FTUS45 KVEF 031743 RRA
TAFBIH
TAF
KBIH 031743Z 0318/0418 17015G20KT P6SM FEW250
     FM040200 16015KT P6SM BKN250
     FM041600 18015G24KT P6SM BKN250=

USA.gov is the U.S. government's official web portal to all federal, state and local government web resources and services.